Time;durP1;ratioP1;P1;durP2;ratioP2;P2;SDS_P1;SDS_P2;PMS_P1;PMS_P2;Temp;Humidity;BMP_temperature;BMP_pressure;BME280_temperature;BME280_humidity;BME280_pressure;Samples;Min_cycle;Max_cycle;Signal;HPM_P1;HPM_P2
2022/07/13 00:01:00;;;;;;;2.45;2.20;;;24.60;57.20;;;;;;5011511;28;20091;-48
2022/07/13 00:03:31;;;;;;;3.80;2.55;;;24.60;56.80;;;;;;5024283;28;20061;-47
2022/07/13 00:05:58;;;;;;;2.30;2.10;;;24.60;57.00;;;;;;5026091;28;20048;-49
2022/07/13 00:08:25;;;;;;;2.05;1.80;;;24.50;57.40;;;;;;5020639;28;20440;-49
2022/07/13 00:10:52;;;;;;;2.05;1.95;;;24.50;57.70;;;;;;5024273;28;20045;-48
2022/07/13 00:13:19;;;;;;;2.45;1.75;;;24.50;58.00;;;;;;5021713;28;20509;-47
2022/07/13 00:15:45;;;;;;;2.40;2.13;;;24.50;58.20;;;;;;5029162;28;20045;-51
2022/07/13 00:18:15;;;;;;;2.55;2.35;;;24.50;58.40;;;;;;5024297;28;20120;-48
2022/07/13 00:20:45;;;;;;;3.53;2.10;;;24.50;58.60;;;;;;5025624;28;20045;-48
2022/07/13 00:23:17;;;;;;;2.55;2.35;;;24.60;59.10;;;;;;5023038;28;20176;-50
2022/07/13 00:25:46;;;;;;;2.67;2.30;;;24.50;59.50;;;;;;5013009;28;20042;-51
2022/07/13 00:28:12;;;;;;;2.17;2.08;;;24.40;59.00;;;;;;5010214;28;20077;-48
2022/07/13 00:30:41;;;;;;;3.28;2.58;;;24.40;59.20;;;;;;5032986;28;20045;-46
2022/07/13 00:33:08;;;;;;;2.45;1.77;;;24.40;58.40;;;;;;5025125;28;20049;-46
2022/07/13 00:35:35;;;;;;;2.45;2.13;;;24.40;58.30;;;;;;5027426;28;20473;-47
2022/07/13 00:38:01;;;;;;;2.50;1.98;;;24.30;58.70;;;;;;5032464;28;20065;-47
2022/07/13 00:40:31;;;;;;;3.60;2.08;;;24.30;58.90;;;;;;5032480;28;20041;-48
2022/07/13 00:42:58;;;;;;;2.33;2.00;;;24.30;59.10;;;;;;5040543;28;20038;-50
2022/07/13 00:45:24;;;;;;;4.25;2.45;;;24.30;57.40;;;;;;5042537;28;20116;-49
2022/07/13 00:47:54;;;;;;;2.75;2.10;;;24.30;57.00;;;;;;5026280;28;20405;-48
2022/07/13 00:50:23;;;;;;;3.22;2.53;;;24.30;57.40;;;;;;5013401;28;20121;-48
2022/07/13 00:52:55;;;;;;;3.35;2.47;;;24.30;57.20;;;;;;5012693;28;20053;-48
2022/07/13 00:55:22;;;;;;;;;;;24.30;57.50;;;;;;5026065;28;20034;-47
2022/07/13 00:57:52;;;;;;;3.35;2.30;;;24.30;56.90;;;;;;5035881;28;19925;-46
2022/07/13 01:00:23;;;;;;;4.75;3.05;;;24.40;57.50;;;;;;5012736;28;20513;-50
2022/07/13 01:02:49;;;;;;;4.32;3.00;;;24.30;57.20;;;;;;5027581;28;20063;-47
2022/07/13 01:05:17;;;;;;;4.07;2.70;;;24.30;57.20;;;;;;5047640;28;20084;-50
2022/07/13 01:07:48;;;;;;;3.90;2.38;;;24.30;57.10;;;;;;5038176;28;20041;-50
2022/07/13 01:10:15;;;;;;;3.78;2.33;;;24.30;56.10;;;;;;5022303;28;20056;-52
2022/07/13 01:12:43;;;;;;;2.63;2.42;;;24.30;56.00;;;;;;5032786;28;20041;-51
2022/07/13 01:15:10;;;;;;;2.92;1.88;;;24.30;54.80;;;;;;5032255;28;20049;-50
2022/07/13 01:17:39;;;;;;;2.35;1.92;;;24.30;53.70;;;;;;5027630;28;20041;-51
2022/07/13 01:20:08;;;;;;;3.75;1.98;;;24.30;54.00;;;;;;5038868;28;20598;-48
2022/07/13 01:22:43;;;;;;;3.25;1.88;;;24.40;54.70;;;;;;5032548;28;20099;-48
2022/07/13 01:25:14;;;;;;;2.03;1.77;;;24.50;52.90;;;;;;5028256;28;20068;-51
2022/07/13 01:27:47;;;;;;;2.70;1.98;;;24.40;53.00;;;;;;5021652;28;20103;-51
2022/07/13 01:30:17;;;;;;;2.45;1.60;;;24.50;54.60;;;;;;5031813;28;20076;-52
2022/07/13 01:32:49;;;;;;;2.35;1.73;;;24.50;54.50;;;;;;5020486;28;20049;-48
2022/07/13 01:35:18;;;;;;;2.13;1.80;;;24.50;54.40;;;;;;5023331;28;20559;-49
2022/07/13 01:37:46;;;;;;;3.20;2.17;;;24.50;54.00;;;;;;5040215;28;20042;-51
2022/07/13 01:40:19;;;;;;;3.13;1.85;;;24.50;54.10;;;;;;5029775;28;20038;-48
2022/07/13 01:42:50;;;;;;;2.78;1.95;;;24.60;54.40;;;;;;5033683;28;20042;-50
2022/07/13 01:45:19;;;;;;;2.08;1.48;;;24.60;51.90;;;;;;5030668;28;20041;-51
2022/07/13 01:47:58;;;;;;;1.73;1.42;;;24.60;52.70;;;;;;5030235;28;20472;-47
2022/07/13 01:50:28;;;;;;;3.03;1.92;;;24.60;51.70;;;;;;5036985;28;20089;-48
2022/07/13 01:52:58;;;;;;;2.65;1.55;;;24.60;50.60;;;;;;5013083;28;20145;-50
2022/07/13 01:55:27;;;;;;;1.73;1.58;;;24.60;51.40;;;;;;5036121;28;20049;-47
2022/07/13 01:58:02;;;;;;;3.28;1.75;;;24.60;51.90;;;;;;5044189;28;20069;-49
2022/07/13 02:00:29;;;;;;;2.33;1.90;;;24.70;52.00;;;;;;5011991;28;20041;-50
2022/07/13 02:02:56;;;;;;;2.42;2.22;;;24.70;52.50;;;;;;5009804;28;20137;-49
2022/07/13 02:05:26;;;;;;;3.20;1.67;;;24.70;52.70;;;;;;5041419;28;20029;-48
2022/07/13 02:07:59;;;;;;;3.92;2.13;;;24.70;53.20;;;;;;5022295;28;20072;-51
2022/07/13 02:10:37;;;;;;;2.58;1.90;;;24.70;53.30;;;;;;5046783;28;20509;-48
2022/07/13 02:13:08;;;;;;;2.40;1.92;;;24.70;53.50;;;;;;5034762;28;20060;-49
2022/07/13 02:15:38;;;;;;;3.15;2.20;;;24.70;53.50;;;;;;5040441;28;20509;-48
2022/07/13 02:18:06;;;;;;;2.13;1.92;;;24.70;53.40;;;;;;5027928;28;20046;-47
2022/07/13 02:20:34;;;;;;;3.28;1.73;;;24.70;53.60;;;;;;5021120;28;20128;-47
2022/07/13 02:23:01;;;;;;;2.60;2.20;;;24.70;52.80;;;;;;5038481;28;20133;-49
2022/07/13 02:25:28;;;;;;;2.13;1.58;;;24.60;53.00;;;;;;5033905;28;20038;-48
2022/07/13 02:28:00;;;;;;;1.90;1.70;;;24.60;53.40;;;;;;5026514;28;20038;-48
2022/07/13 02:30:31;;;;;;;1.95;1.85;;;24.60;54.00;;;;;;5010857;28;20057;-49
2022/07/13 02:32:58;;;;;;;3.67;2.55;;;24.60;54.20;;;;;;5029957;28;20465;-48
2022/07/13 02:35:25;;;;;;;5.55;1.98;;;24.60;54.20;;;;;;5022114;28;20425;-48
2022/07/13 02:37:54;;;;;;;2.97;2.15;;;24.50;54.00;;;;;;5030042;28;20049;-47
2022/07/13 02:40:25;;;;;;;3.28;2.55;;;24.50;53.80;;;;;;5031413;28;20044;-51
2022/07/13 02:42:54;;;;;;;2.75;2.20;;;24.50;54.10;;;;;;5029175;28;20414;-50
2022/07/13 02:45:21;;;;;;;2.72;2.30;;;24.50;54.20;;;;;;5037901;28;20068;-47
2022/07/13 02:47:50;;;;;;;2.97;2.10;;;24.50;54.60;;;;;;5020365;28;20041;-48
2022/07/13 02:50:17;;;;;;;3.30;1.85;;;24.40;54.80;;;;;;5021066;28;20041;-47
2022/07/13 02:52:52;;;;;;;3.72;2.00;;;24.40;54.90;;;;;;5023657;28;20040;-51
2022/07/13 02:55:20;;;;;;;2.50;2.30;;;24.30;54.50;;;;;;5006221;28;20050;-49
2022/07/13 02:57:46;;;;;;;3.45;2.25;;;24.30;55.10;;;;;;5025017;28;20144;-51
2022/07/13 03:00:15;;;;;;;3.20;1.90;;;24.20;55.20;;;;;;5020274;28;20607;-48
2022/07/13 03:02:43;;;;;;;2.47;2.03;;;24.30;55.40;;;;;;5030297;28;20045;-48
2022/07/13 03:05:13;;;;;;;3.55;2.25;;;24.20;55.60;;;;;;5031746;28;20058;-45
2022/07/13 03:07:44;;;;;;;4.32;2.25;;;24.20;55.70;;;;;;5029343;28;20502;-49
2022/07/13 03:10:16;;;;;;;2.70;1.95;;;24.20;56.00;;;;;;5025756;28;20053;-47
2022/07/13 03:12:50;;;;;;;2.60;2.17;;;24.20;56.00;;;;;;5034593;28;20050;-48
2022/07/13 03:15:22;;;;;;;2.30;2.10;;;24.10;56.00;;;;;;5010317;28;20045;-51
2022/07/13 03:17:49;;;;;;;2.83;2.33;;;24.10;56.30;;;;;;5011875;28;20045;-51
2022/07/13 03:20:17;;;;;;;2.63;1.88;;;24.10;56.50;;;;;;5035126;28;20500;-46
2022/07/13 03:22:45;;;;;;;2.08;1.85;;;24.00;56.70;;;;;;5025581;28;20386;-51
2022/07/13 03:25:15;;;;;;;3.60;2.00;;;24.00;56.70;;;;;;5007724;28;20041;-49
2022/07/13 03:27:50;;;;;;;3.65;1.98;;;24.00;56.70;;;;;;5026942;28;20037;-48
2022/07/13 03:30:18;;;;;;;3.22;2.03;;;24.00;56.90;;;;;;5026266;28;20068;-47
2022/07/13 03:32:45;;;;;;;3.00;2.15;;;24.00;57.00;;;;;;5041335;28;20045;-48
2022/07/13 03:35:12;;;;;;;3.22;1.77;;;23.90;56.70;;;;;;5035046;28;20045;-45
2022/07/13 03:37:39;;;;;;;2.42;2.15;;;24.00;57.00;;;;;;5039738;28;20092;-51
2022/07/13 03:40:08;;;;;;;3.00;1.77;;;23.90;57.30;;;;;;5027054;28;20041;-46
2022/07/13 03:42:39;;;;;;;3.55;2.20;;;23.90;57.40;;;;;;5020606;23;20039;-52
2022/07/13 03:45:08;;;;;;;3.15;1.92;;;23.90;57.40;;;;;;4986820;28;20710;-48
2022/07/13 03:47:40;;;;;;;1.75;1.65;;;23.90;57.30;;;;;;5016271;28;20060;-50
2022/07/13 03:50:11;;;;;;;2.97;1.73;;;23.90;57.40;;;;;;5017401;28;20583;-52
2022/07/13 03:52:43;;;;;;;2.17;2.03;;;23.90;57.40;;;;;;5009048;28;20096;-49
2022/07/13 03:55:12;;;;;;;3.70;2.03;;;23.90;57.30;;;;;;4997453;28;20050;-50
2022/07/13 03:57:47;;;;;;;3.47;1.95;;;23.80;57.00;;;;;;5004880;28;20112;-48
2022/07/13 04:00:17;;;;;;;2.22;1.77;;;23.80;57.00;;;;;;5012078;28;20050;-50
2022/07/13 04:02:49;;;;;;;2.58;1.42;;;23.90;57.20;;;;;;5001083;28;20050;-50
2022/07/13 04:05:19;;;;;;;1.80;1.70;;;23.90;57.30;;;;;;4995808;28;20060;-52
2022/07/13 04:07:47;;;;;;;1.70;1.60;;;23.80;57.40;;;;;;4984666;28;20049;-53
2022/07/13 04:10:20;;;;;;;3.40;1.95;;;23.90;57.60;;;;;;5012198;28;20065;-49
2022/07/13 04:12:50;;;;;;;3.13;1.50;;;23.90;57.80;;;;;;5013371;28;20181;-53
2022/07/13 04:15:22;;;;;;;2.65;1.40;;;23.90;57.00;;;;;;4996406;28;20050;-49
2022/07/13 04:17:49;;;;;;;1.75;1.65;;;23.90;57.10;;;;;;5005553;28;20067;-53
2022/07/13 04:20:19;;;;;;;1.67;1.58;;;23.90;57.20;;;;;;4989521;28;20035;-51
2022/07/13 04:22:52;;;;;;;1.75;1.65;;;23.90;57.30;;;;;;4999228;28;20054;-53
2022/07/13 04:25:19;;;;;;;2.03;1.77;;;23.90;55.60;;;;;;4997580;28;20502;-52
2022/07/13 04:27:49;;;;;;;2.00;1.80;;;24.00;56.10;;;;;;4990853;28;20038;-53
2022/07/13 04:30:16;;;;;;;2.30;1.45;;;24.00;56.40;;;;;;4994010;28;20092;-52
2022/07/13 04:32:43;;;;;;;2.22;1.52;;;24.00;55.90;;;;;;5003798;28;20053;-56
2022/07/13 04:35:10;;;;;;;1.77;1.67;;;24.00;55.50;;;;;;4991922;28;20084;-56
2022/07/13 04:37:41;;;;;;;2.13;1.60;;;24.10;55.50;;;;;;4992920;28;20042;-53
2022/07/13 04:40:09;;;;;;;1.95;1.50;;;24.10;55.70;;;;;;5008028;28;20048;-49
2022/07/13 04:42:35;;;;;;;1.70;1.60;;;24.10;53.50;;;;;;4996319;28;20504;-53
2022/07/13 04:45:02;;;;;;;1.33;1.23;;;24.20;53.00;;;;;;5000736;28;20100;-53
2022/07/13 04:47:30;;;;;;;2.00;1.58;;;24.20;52.30;;;;;;4999346;28;20394;-53
2022/07/13 04:49:57;;;;;;;3.00;1.40;;;24.20;51.70;;;;;;4992292;28;20049;-53
2022/07/13 04:52:24;;;;;;;1.42;1.33;;;24.30;52.20;;;;;;4997165;28;20052;-53
2022/07/13 04:54:52;;;;;;;3.50;1.67;;;24.30;52.90;;;;;;4995709;28;20050;-53
2022/07/13 04:57:22;;;;;;;1.42;1.20;;;24.40;52.50;;;;;;4973246;28;20514;-51
2022/07/13 04:59:48;;;;;;;3.00;1.63;;;24.50;51.70;;;;;;4978335;28;20046;-50
2022/07/13 05:02:15;;;;;;;3.95;1.80;;;24.50;51.80;;;;;;4999930;28;20036;-51
2022/07/13 05:04:42;;;;;;;1.83;1.73;;;24.50;52.90;;;;;;5003837;28;20041;-52
2022/07/13 05:07:09;;;;;;;2.03;1.90;;;24.60;53.30;;;;;;5011922;28;20149;-50
2022/07/13 05:09:36;;;;;;;4.65;1.70;;;24.60;52.70;;;;;;4987946;28;20558;-50
2022/07/13 05:12:04;;;;;;;2.63;1.55;;;24.70;52.00;;;;;;5015702;28;20052;-53
2022/07/13 05:14:31;;;;;;;1.98;1.77;;;24.70;51.40;;;;;;5004019;28;20069;-53
2022/07/13 05:16:58;;;;;;;1.55;1.45;;;24.70;50.60;;;;;;5012044;28;20054;-53
2022/07/13 05:19:25;;;;;;;3.15;1.60;;;24.80;50.30;;;;;;4993646;28;20052;-52
2022/07/13 05:21:52;;;;;;;2.00;1.55;;;24.80;50.10;;;;;;5009631;28;20042;-50
2022/07/13 05:24:19;;;;;;;1.30;1.20;;;24.90;50.20;;;;;;5000996;28;20100;-51
2022/07/13 05:26:45;;;;;;;1.75;1.65;;;24.90;50.50;;;;;;5006039;28;20049;-49
2022/07/13 05:29:12;;;;;;;1.92;1.83;;;25.00;50.70;;;;;;5002206;28;20043;-53
2022/07/13 05:31:40;;;;;;;1.92;1.83;;;25.10;50.40;;;;;;5002760;28;20076;-51
2022/07/13 05:34:08;;;;;;;3.78;1.80;;;25.10;49.50;;;;;;5010021;28;20096;-53
2022/07/13 05:36:40;;;;;;;2.10;1.92;;;25.10;49.50;;;;;;4989399;28;20474;-51
2022/07/13 05:39:08;;;;;;;3.22;1.90;;;25.20;49.30;;;;;;4989056;28;20096;-53
2022/07/13 05:41:35;;;;;;;2.05;1.85;;;25.30;49.00;;;;;;4999261;28;20093;-51
2022/07/13 05:44:03;;;;;;;2.88;1.80;;;25.30;48.90;;;;;;5008805;28;20054;-53
2022/07/13 05:46:31;;;;;;;1.92;1.65;;;25.40;48.90;;;;;;5010928;28;20129;-52
2022/07/13 05:48:58;;;;;;;2.63;2.25;;;25.40;48.60;;;;;;4996519;28;20034;-49
2022/07/13 05:51:25;;;;;;;3.17;2.30;;;25.50;48.50;;;;;;5002207;28;20048;-53
2022/07/13 05:54:04;;;;;;;2.25;2.05;;;25.60;48.30;;;;;;5010743;28;20136;-51
2022/07/13 05:56:51;;;;;;;3.47;2.53;;;25.60;48.60;;;;;;5000346;28;20050;-53
2022/07/13 05:59:17;;;;;;;2.72;2.33;;;25.70;48.50;;;;;;5002263;28;20042;-50
2022/07/13 06:01:44;;;;;;;3.13;2.70;;;25.80;48.30;;;;;;5002967;28;20513;-52
2022/07/13 06:04:11;;;;;;;4.53;2.70;;;25.80;48.10;;;;;;5004926;28;20403;-51
2022/07/13 06:06:38;;;;;;;3.05;2.75;;;25.90;48.20;;;;;;5002426;28;20109;-51
2022/07/13 06:09:07;;;;;;;2.78;2.47;;;26.00;47.80;;;;;;5003902;28;20081;-53
2022/07/13 06:11:33;;;;;;;2.63;2.28;;;26.00;47.80;;;;;;5012228;28;20066;-53
2022/07/13 06:14:00;;;;;;;3.92;2.50;;;26.10;47.90;;;;;;5003902;28;20097;-51
2022/07/13 06:16:27;;;;;;;3.03;2.35;;;26.10;47.40;;;;;;4995510;28;20050;-51
2022/07/13 06:18:53;;;;;;;3.03;2.30;;;26.10;47.40;;;;;;5000675;28;20042;-51
2022/07/13 06:21:20;;;;;;;3.50;2.22;;;26.20;47.60;;;;;;4992322;28;20038;-51
2022/07/13 06:23:47;;;;;;;3.25;2.55;;;26.20;47.50;;;;;;4986824;28;20086;-52
2022/07/13 06:26:14;;;;;;;5.63;2.63;;;26.30;47.50;;;;;;4987424;28;20509;-53
2022/07/13 06:28:40;;;;;;;4.57;2.80;;;26.30;47.70;;;;;;4993581;28;20049;-53
2022/07/13 06:31:09;;;;;;;4.88;2.67;;;26.40;47.40;;;;;;4999564;28;20046;-50
2022/07/13 06:33:36;;;;;;;3.03;2.70;;;26.50;47.60;;;;;;4989397;28;20137;-50
2022/07/13 06:36:03;;;;;;;4.63;2.50;;;26.60;47.50;;;;;;4998390;28;20105;-53
2022/07/13 06:38:30;;;;;;;2.42;2.25;;;26.60;47.30;;;;;;5002062;28;20050;-51
2022/07/13 06:40:56;;;;;;;3.00;2.65;;;26.70;47.40;;;;;;4991498;28;20116;-53
2022/07/13 06:43:23;;;;;;;3.97;2.13;;;26.70;47.30;;;;;;4987891;28;20155;-53
2022/07/13 06:45:50;;;;;;;3.67;2.50;;;26.80;47.00;;;;;;4998621;28;20081;-53
2022/07/13 06:48:17;;;;;;;3.22;2.65;;;26.90;47.00;;;;;;5000385;28;20405;-53
2022/07/13 06:50:43;;;;;;;3.65;2.45;;;27.00;47.60;;;;;;4991361;28;20045;-53
2022/07/13 06:53:13;;;;;;;2.53;2.33;;;27.00;47.00;;;;;;4996485;28;20042;-52
2022/07/13 06:55:40;;;;;;;2.53;2.15;;;27.10;46.60;;;;;;4999168;28;20046;-51
2022/07/13 06:58:07;;;;;;;4.22;2.55;;;27.10;46.40;;;;;;5002288;28;20157;-51
2022/07/13 07:00:33;;;;;;;3.50;2.50;;;27.20;46.50;;;;;;5007598;28;20061;-50
2022/07/13 07:03:00;;;;;;;3.38;2.40;;;27.20;46.60;;;;;;5000247;28;20042;-52
2022/07/13 07:05:27;;;;;;;3.03;2.00;;;27.30;46.50;;;;;;4997505;28;20050;-49
2022/07/13 07:07:54;;;;;;;3.88;2.65;;;27.30;46.60;;;;;;4990120;28;20093;-53
2022/07/13 07:10:21;;;;;;;3.08;2.75;;;27.40;46.80;;;;;;4989476;28;20100;-50
2022/07/13 07:12:56;;;;;;;2.22;1.95;;;27.40;46.30;;;;;;4989771;28;20641;-53
2022/07/13 07:15:23;;;;;;;3.25;2.47;;;27.50;46.20;;;;;;4999127;28;20100;-53
2022/07/13 07:17:50;;;;;;;3.00;2.60;;;27.50;46.30;;;;;;5002121;28;20046;-52
2022/07/13 07:20:17;;;;;;;3.53;2.30;;;27.50;46.20;;;;;;5007617;28;20041;-53
2022/07/13 07:22:45;;;;;;;2.83;2.20;;;27.60;46.20;;;;;;4996525;28;20038;-52
2022/07/13 07:25:13;;;;;;;2.30;2.10;;;27.60;46.30;;;;;;4999959;28;20046;-52
2022/07/13 07:27:41;;;;;;;2.78;2.30;;;27.70;46.20;;;;;;4990332;28;20077;-51
2022/07/13 07:30:08;;;;;;;2.30;2.10;;;27.70;46.00;;;;;;4989565;28;20070;-49
2022/07/13 07:32:35;;;;;;;2.55;2.00;;;27.70;45.50;;;;;;5000635;28;20456;-53
2022/07/13 07:35:02;;;;;;;3.25;2.00;;;27.80;45.00;;;;;;5001486;28;20112;-53
2022/07/13 07:37:29;;;;;;;2.50;1.90;;;27.80;44.80;;;;;;5006326;28;20046;-51
2022/07/13 07:39:55;;;;;;;1.70;1.60;;;27.80;45.10;;;;;;4995343;28;20457;-52
2022/07/13 07:42:22;;;;;;;2.20;2.00;;;27.90;44.70;;;;;;5002751;28;20049;-54
2022/07/13 07:44:49;;;;;;;2.40;2.20;;;27.90;45.20;;;;;;5009961;28;20690;-50
2022/07/13 07:47:16;;;;;;;2.50;1.60;;;28.00;45.00;;;;;;4998621;28;20046;-52
2022/07/13 07:49:43;;;;;;;2.33;2.10;;;28.10;44.60;;;;;;4997693;28;20506;-52
2022/07/13 07:52:10;;;;;;;1.90;1.80;;;28.20;44.10;;;;;;5003727;28;20050;-53
2022/07/13 07:54:57;;;;;;;2.10;1.58;;;28.20;43.60;;;;;;5005890;28;20046;-53
2022/07/13 07:57:28;;;;;;;3.20;2.20;;;28.30;43.50;;;;;;5009876;28;20497;-53
2022/07/13 07:59:55;;;;;;;2.00;1.80;;;28.30;43.90;;;;;;4996032;28;20042;-53
2022/07/13 08:02:22;;;;;;;3.65;2.33;;;28.30;43.70;;;;;;5002349;28;20035;-54
2022/07/13 08:04:49;;;;;;;2.90;2.25;;;28.30;43.50;;;;;;4998556;28;20044;-50
2022/07/13 08:07:15;;;;;;;6.22;2.22;;;28.30;43.80;;;;;;4983155;28;20162;-50
2022/07/13 08:09:42;;;;;;;2.13;1.90;;;28.40;43.50;;;;;;4991044;28;20100;-51
2022/07/13 08:12:09;;;;;;;3.15;2.13;;;28.30;43.90;;;;;;4997215;28;20120;-50
2022/07/13 08:14:36;;;;;;;3.22;1.92;;;28.30;44.20;;;;;;5009688;28;20050;-53
2022/07/13 08:17:03;;;;;;;2.45;1.85;;;28.30;44.00;;;;;;4994750;28;20045;-53
2022/07/13 08:19:29;;;;;;;6.15;2.55;;;28.30;43.90;;;;;;5000761;28;20045;-53
2022/07/13 08:22:06;;;;;;;2.95;2.28;;;28.30;43.60;;;;;;4996442;28;20050;-53
2022/07/13 08:24:34;;;;;;;3.33;1.63;;;28.40;43.00;;;;;;4989410;28;20046;-48
2022/07/13 08:27:01;;;;;;;2.13;2.00;;;28.40;43.70;;;;;;4991475;28;20046;-53
2022/07/13 08:29:28;;;;;;;2.80;1.98;;;28.50;43.50;;;;;;5000899;28;20034;-49
2022/07/13 08:31:54;;;;;;;2.58;2.08;;;28.60;43.20;;;;;;5002506;28;20072;-52
2022/07/13 08:39:52;;;;;;;4.28;2.30;;;28.90;43.20;;;;;;5009967;28;20050;-53
2022/07/13 08:42:19;;;;;;;3.30;2.20;;;28.90;42.60;;;;;;5007094;28;20034;-53
2022/07/13 08:44:46;;;;;;;5.00;2.45;;;29.00;42.70;;;;;;5001900;28;20046;-53
2022/07/13 08:47:14;;;;;;;3.95;2.42;;;29.00;42.60;;;;;;4996517;28;20506;-52
2022/07/13 08:49:41;;;;;;;4.15;2.35;;;29.20;42.40;;;;;;5004504;28;20046;-53
2022/07/13 08:52:08;;;;;;;2.88;2.17;;;29.20;42.30;;;;;;4995202;28;20048;-53
2022/07/13 08:54:35;;;;;;;5.88;2.42;;;29.20;42.30;;;;;;4989821;28;20042;-53
2022/07/13 08:57:02;;;;;;;4.30;2.30;;;29.30;42.50;;;;;;5005327;28;20590;-53
2022/07/13 08:59:29;;;;;;;3.08;2.60;;;29.30;42.10;;;;;;5004425;28;20448;-51
2022/07/13 09:01:57;;;;;;;3.33;2.50;;;29.40;42.00;;;;;;4991666;28;20585;-53
2022/07/13 09:04:24;;;;;;;2.25;2.08;;;29.40;41.80;;;;;;4990257;28;20420;-51
2022/07/13 09:06:51;;;;;;;4.85;2.55;;;29.50;42.20;;;;;;4993984;28;20034;-52
2022/07/13 09:09:31;;;;;;;3.22;2.28;;;29.60;42.70;;;;;;5005283;28;20046;-51
2022/07/13 09:12:25;;;;;;;3.00;2.20;;;29.60;42.40;;;;;;5013175;28;20042;-54
2022/07/13 09:14:52;;;;;;;2.97;1.83;;;29.70;42.20;;;;;;4990907;28;20401;-53
2022/07/13 09:17:37;;;;;;;2.60;2.05;;;29.80;42.30;;;;;;4993649;28;20038;-51
2022/07/13 09:20:10;;;;;;;2.50;2.28;;;29.90;41.70;;;;;;4990206;28;20043;-53
2022/07/13 09:22:46;;;;;;;3.53;2.00;;;30.00;41.60;;;;;;4993013;28;20043;-52
2022/07/13 09:25:27;;;;;;;3.67;2.70;;;30.10;41.60;;;;;;5011956;28;20049;-51
2022/07/13 09:27:54;;;;;;;2.50;2.30;;;30.20;40.70;;;;;;4996506;28;20092;-53
2022/07/13 09:30:26;;;;;;;3.10;2.28;;;30.30;41.30;;;;;;4991326;28;20490;-53
2022/07/13 09:32:54;;;;;;;2.95;1.77;;;30.30;40.70;;;;;;4995139;28;20042;-53
2022/07/13 09:35:40;;;;;;;3.28;1.95;;;30.30;40.80;;;;;;4992332;28;20506;-53
2022/07/13 09:38:07;;;;;;;3.08;1.90;;;30.40;40.50;;;;;;4993616;28;20407;-52
2022/07/13 09:40:33;;;;;;;4.10;1.92;;;30.40;40.50;;;;;;4990518;28;20038;-53
2022/07/13 09:48:32;;;;;;;2.10;1.90;;;30.50;41.30;;;;;;4972004;28;20047;-50
2022/07/13 09:50:59;;;;;;;3.63;2.10;;;30.60;40.70;;;;;;4983268;28;20060;-53
2022/07/13 09:53:30;;;;;;;3.05;2.15;;;30.70;40.80;;;;;;5041262;23;20183;-46
2022/07/13 09:56:00;;;;;;;4.65;2.55;;;30.70;40.70;;;;;;5026043;28;20413;-48
2022/07/13 09:58:30;;;;;;;3.55;1.90;;;30.80;40.10;;;;;;5020915;28;20068;-47
2022/07/13 10:00:59;;;;;;;2.97;2.00;;;30.90;39.90;;;;;;5028014;28;20051;-48
2022/07/13 10:03:29;;;;;;;1.95;1.80;;;30.90;40.00;;;;;;5042177;28;20033;-47
2022/07/13 10:05:57;;;;;;;4.05;1.92;;;30.90;40.00;;;;;;5038826;28;20048;-48
2022/07/13 10:08:24;;;;;;;3.55;1.40;;;30.90;40.10;;;;;;5029268;28;20460;-47
2022/07/13 10:10:52;;;;;;;2.38;1.50;;;30.90;39.70;;;;;;5028974;28;20095;-49
2022/07/13 10:13:19;;;;;;;3.17;1.65;;;30.90;39.70;;;;;;5042338;28;20459;-48
2022/07/13 10:15:47;;;;;;;5.70;1.67;;;30.90;39.90;;;;;;5045100;28;20503;-49
2022/07/13 10:18:29;;;;;;;6.85;2.03;;;30.90;39.80;;;;;;5049094;28;20060;-48
2022/07/13 10:21:31;;;;;;;2.15;1.45;;;30.90;39.60;;;;;;5037025;28;20180;-49
2022/07/13 10:23:59;;;;;;;4.30;1.90;;;30.80;40.00;;;;;;5038631;28;20041;-49
2022/07/13 10:26:26;;;;;;;2.58;1.67;;;30.80;39.90;;;;;;5029673;28;20051;-50
2022/07/13 10:29:02;;;;;;;4.10;1.67;;;30.80;39.70;;;;;;5024834;28;20041;-48
2022/07/13 10:31:31;;;;;;;3.88;1.70;;;30.80;40.00;;;;;;5031664;28;20121;-50
2022/07/13 10:33:58;;;;;;;4.78;2.20;;;30.70;40.00;;;;;;5034160;28;20409;-49
2022/07/13 10:36:54;;;;;;;1.70;1.58;;;30.90;40.30;;;;;;5028671;28;20505;-50
2022/07/13 10:39:26;;;;;;;3.15;1.90;;;30.90;40.70;;;;;;5033320;28;20041;-49
2022/07/13 10:42:03;;;;;;;5.07;1.73;;;31.00;39.70;;;;;;5038595;28;20037;-48
2022/07/13 10:44:36;;;;;;;1.95;1.15;;;31.00;39.70;;;;;;5025087;28;20042;-49
2022/07/13 10:47:04;;;;;;;2.35;1.67;;;31.00;40.10;;;;;;5028567;28;20042;-49
2022/07/13 10:49:32;;;;;;;4.30;1.63;;;31.10;39.70;;;;;;5028181;28;20392;-50
2022/07/13 10:52:21;;;;;;;2.00;1.60;;;31.20;39.80;;;;;;5038141;28;20045;-51
2022/07/13 10:55:04;;;;;;;1.85;1.63;;;31.20;39.30;;;;;;5030809;28;20117;-49
2022/07/13 10:57:32;;;;;;;1.80;1.70;;;31.20;40.30;;;;;;5031028;28;20045;-50
2022/07/13 11:02:56;;;;;;;1.90;1.70;;;31.40;39.60;;;;;;5046353;28;20128;-49
2022/07/13 11:05:26;;;;;;;1.65;1.50;;;31.50;40.00;;;;;;5039477;28;20060;-49
2022/07/13 11:07:56;;;;;;;2.00;1.77;;;31.60;39.80;;;;;;5034475;28;20056;-49
2022/07/13 11:10:34;;;;;;;2.38;1.70;;;31.80;39.90;;;;;;5034986;28;20053;-49
2022/07/13 11:13:13;;;;;;;3.85;1.73;;;32.00;39.60;;;;;;5027542;28;20084;-51
2022/07/13 11:15:42;;;;;;;1.70;1.60;;;32.00;39.70;;;;;;5025423;28;20038;-51
2022/07/13 11:18:21;;;;;;;2.20;1.77;;;32.20;39.50;;;;;;5032686;28;20045;-53
2022/07/13 11:21:16;;;;;;;3.83;1.98;;;32.30;39.70;;;;;;5034857;28;20045;-49
2022/07/13 11:26:47;;;;;;;2.88;1.60;;;32.60;38.90;;;;;;5031714;28;20067;-50
2022/07/13 11:29:24;;;;;;;2.72;1.77;;;32.70;38.90;;;;;;5036042;28;20040;-52
2022/07/13 11:32:01;;;;;;;1.80;1.70;;;32.70;38.30;;;;;;5030773;28;20686;-48
2022/07/13 11:34:28;;;;;;;1.90;1.80;;;32.80;38.50;;;;;;5027279;28;20079;-49
2022/07/13 11:36:57;;;;;;;2.38;1.85;;;32.80;38.20;;;;;;5035207;28;20116;-50
2022/07/13 11:39:25;;;;;;;3.92;2.08;;;32.80;38.20;;;;;;5033437;28;20041;-49
2022/07/13 11:41:55;;;;;;;2.28;2.13;;;32.80;38.70;;;;;;5027881;28;20072;-48
2022/07/13 11:44:27;;;;;;;1.88;1.77;;;32.80;38.30;;;;;;5029306;28;20052;-50
2022/07/13 11:46:55;;;;;;;2.30;2.08;;;32.90;38.40;;;;;;5028634;28;20076;-47
2022/07/13 11:49:24;;;;;;;2.38;1.90;;;32.90;38.30;;;;;;5025556;28;20498;-51
2022/07/13 11:51:51;;;;;;;2.10;1.98;;;32.90;38.30;;;;;;5027697;28;20042;-49
2022/07/13 11:54:20;;;;;;;3.15;1.77;;;32.90;38.80;;;;;;5032450;28;20052;-48
2022/07/13 11:56:58;;;;;;;7.93;2.28;;;32.90;39.10;;;;;;5035371;28;20068;-52
2022/07/13 11:59:34;;;;;;;2.65;1.98;;;32.90;38.80;;;;;;5026767;28;20099;-49
2022/07/13 12:02:02;;;;;;;4.03;2.22;;;32.80;38.60;;;;;;5028729;28;20092;-50
2022/07/13 12:04:29;;;;;;;5.10;2.50;;;32.80;38.80;;;;;;5028860;28;20033;-49
2022/07/13 12:07:30;;;;;;;2.85;1.83;;;32.80;38.60;;;;;;5028671;28;20117;-49
2022/07/13 12:10:02;;;;;;;8.88;1.92;;;33.00;39.10;;;;;;4995393;28;20061;-50
2022/07/13 12:12:33;;;;;;;;;;;33.00;38.70;;;;;;5029810;28;20053;-50
2022/07/13 12:15:00;;;;;;;4.18;1.90;;;33.10;39.20;;;;;;5034357;28;19921;-49
2022/07/13 12:17:28;;;;;;;7.35;3.10;;;33.20;38.50;;;;;;5032275;28;20511;-49
2022/07/13 12:20:14;;;;;;;3.33;1.77;;;33.30;38.50;;;;;;5030968;28;20064;-49
2022/07/13 12:22:56;;;;;;;5.72;2.05;;;33.50;38.50;;;;;;5031876;28;20072;-52
2022/07/13 12:25:25;;;;;;;2.20;2.00;;;33.70;38.20;;;;;;5029486;28;20084;-48
2022/07/13 12:27:53;;;;;;;3.05;2.35;;;33.80;37.80;;;;;;5027921;28;20095;-51
2022/07/13 12:30:20;;;;;;;5.40;1.80;;;33.90;37.80;;;;;;5029929;28;20116;-50
2022/07/13 12:33:09;;;;;;;5.57;2.45;;;34.10;37.70;;;;;;5033386;28;20096;-50
2022/07/13 12:35:40;;;;;;;3.50;1.98;;;34.30;37.40;;;;;;5033623;28;20128;-48
2022/07/13 12:38:12;;;;;;;2.25;1.98;;;34.30;37.00;;;;;;5030162;28;20060;-49
2022/07/13 12:40:48;;;;;;;3.92;2.80;;;34.40;37.00;;;;;;5031802;28;20069;-51
2022/07/13 12:43:20;;;;;;;2.92;2.10;;;34.60;36.80;;;;;;5033640;28;20029;-49
2022/07/13 12:45:50;;;;;;;3.03;2.40;;;34.70;36.30;;;;;;5031339;28;20095;-49
2022/07/13 12:48:19;;;;;;;3.03;2.60;;;34.70;36.20;;;;;;5028887;28;20476;-48
2022/07/13 12:51:00;;;;;;;3.17;2.45;;;34.70;35.90;;;;;;5032792;28;20508;-49
2022/07/13 12:53:46;;;;;;;2.17;2.03;;;34.70;35.90;;;;;;5031097;28;20404;-48
2022/07/13 12:56:14;;;;;;;2.40;2.20;;;34.80;36.20;;;;;;5030375;28;20056;-53
2022/07/13 12:58:49;;;;;;;2.20;1.98;;;34.80;36.30;;;;;;5031737;28;20043;-54
2022/07/13 13:01:32;;;;;;;3.60;1.88;;;35.00;36.20;;;;;;5034610;28;20041;-50
2022/07/13 13:04:02;;;;;;;5.57;2.00;;;35.10;35.70;;;;;;5031252;28;20034;-49
2022/07/13 13:06:36;;;;;;;1.60;1.50;;;35.10;35.40;;;;;;5031801;28;20061;-53
2022/07/13 13:09:03;;;;;;;3.17;1.95;;;35.30;35.50;;;;;;5028203;28;20045;-50
2022/07/13 13:11:30;;;;;;;2.75;2.00;;;35.40;35.20;;;;;;5032460;28;20042;-53
2022/07/13 13:13:56;;;;;;;2.00;1.80;;;35.50;34.30;;;;;;5031982;28;20095;-49
2022/07/13 13:16:28;;;;;;;2.65;1.80;;;35.50;34.30;;;;;;5028282;28;20167;-53
2022/07/13 13:18:55;;;;;;;1.77;1.52;;;35.50;34.10;;;;;;5039126;28;20041;-53